sensor_id;sensor_type;location;lat;lon;timestamp;pressure;altitude;pressure_sealevel;temperature;humidity
70684;BME280;58263;48.146;11.440;2023-02-15T00:00:53;96999.09;;;1.42;82.62
70684;BME280;58263;48.146;11.440;2023-02-15T00:03:21;96997.59;;;1.39;82.21
70684;BME280;58263;48.146;11.440;2023-02-15T00:05:46;97001.22;;;1.38;82.62
70684;BME280;58263;48.146;11.440;2023-02-15T00:08:12;96999.38;;;1.39;82.45
70684;BME280;58263;48.146;11.440;2023-02-15T00:10:37;97000.09;;;1.31;82.34
70684;BME280;58263;48.146;11.440;2023-02-15T00:13:02;96994.53;;;1.34;82.23
70684;BME280;58263;48.146;11.440;2023-02-15T00:15:28;96991.47;;;1.39;82.45
70684;BME280;58263;48.146;11.440;2023-02-15T00:17:53;96988.13;;;1.37;82.84
70684;BME280;58263;48.146;11.440;2023-02-15T00:20:18;96989.78;;;1.38;82.25
70684;BME280;58263;48.146;11.440;2023-02-15T00:22:44;96985.75;;;1.33;82.52
70684;BME280;58263;48.146;11.440;2023-02-15T00:25:09;96991.75;;;1.35;81.95
70684;BME280;58263;48.146;11.440;2023-02-15T00:27:34;96985.50;;;1.37;81.86
70684;BME280;58263;48.146;11.440;2023-02-15T00:30:00;96993.97;;;1.40;82.28
70684;BME280;58263;48.146;11.440;2023-02-15T00:32:25;96990.66;;;1.28;82.29
70684;BME280;58263;48.146;11.440;2023-02-15T00:34:50;96996.22;;;1.35;82.03
70684;BME280;58263;48.146;11.440;2023-02-15T00:37:16;96990.22;;;1.33;81.97
70684;BME280;58263;48.146;11.440;2023-02-15T00:39:41;96987.00;;;1.29;82.16
70684;BME280;58263;48.146;11.440;2023-02-15T00:42:07;96986.88;;;1.31;82.25
70684;BME280;58263;48.146;11.440;2023-02-15T00:44:32;96989.66;;;1.29;82.75
70684;BME280;58263;48.146;11.440;2023-02-15T00:46:57;96985.63;;;1.25;82.49
70684;BME280;58263;48.146;11.440;2023-02-15T00:49:23;96981.59;;;1.31;82.63
70684;BME280;58263;48.146;11.440;2023-02-15T00:51:48;96976.44;;;1.29;82.29
70684;BME280;58263;48.146;11.440;2023-02-15T00:54:13;96972.03;;;1.20;81.94
70684;BME280;58263;48.146;11.440;2023-02-15T00:56:38;96972.56;;;1.14;82.77
70684;BME280;58263;48.146;11.440;2023-02-15T00:59:04;96966.31;;;1.15;82.79
70684;BME280;58263;48.146;11.440;2023-02-15T01:01:29;96957.69;;;1.13;83.12
70684;BME280;58263;48.146;11.440;2023-02-15T01:03:54;96963.69;;;1.15;82.56
70684;BME280;58263;48.146;11.440;2023-02-15T01:06:20;96953.13;;;1.15;82.99
70684;BME280;58263;48.146;11.440;2023-02-15T01:08:46;96954.91;;;1.14;82.28
70684;BME280;58263;48.146;11.440;2023-02-15T01:11:14;96949.63;;;1.14;82.18
70684;BME280;58263;48.146;11.440;2023-02-15T01:13:40;96955.63;;;1.07;82.40
70684;BME280;58263;48.146;11.440;2023-02-15T01:16:06;96952.13;;;1.06;82.39
70684;BME280;58263;48.146;11.440;2023-02-15T01:18:32;96956.44;;;1.07;82.39
70684;BME280;58263;48.146;11.440;2023-02-15T01:20:57;96957.56;;;1.05;82.12
70684;BME280;58263;48.146;11.440;2023-02-15T01:23:23;96953.25;;;1.04;82.07
70684;BME280;58263;48.146;11.440;2023-02-15T01:25:49;96941.59;;;0.96;82.14
70684;BME280;58263;48.146;11.440;2023-02-15T01:28:14;96941.59;;;0.96;82.19
70684;BME280;58263;48.146;11.440;2023-02-15T01:30:40;96938.94;;;0.96;82.24
70684;BME280;58263;48.146;11.440;2023-02-15T01:33:05;96941.16;;;0.91;82.41
70684;BME280;58263;48.146;11.440;2023-02-15T01:35:31;96940.91;;;0.94;82.50
70684;BME280;58263;48.146;11.440;2023-02-15T01:37:56;96935.91;;;1.01;82.04
70684;BME280;58263;48.146;11.440;2023-02-15T01:40:23;96930.72;;;0.99;82.03
70684;BME280;58263;48.146;11.440;2023-02-15T01:42:53;96936.44;;;0.95;81.85
70684;BME280;58263;48.146;11.440;2023-02-15T01:45:28;96934.75;;;0.94;81.94
70684;BME280;58263;48.146;11.440;2023-02-15T01:50:33;96930.59;;;0.91;81.78
70684;BME280;58263;48.146;11.440;2023-02-15T01:53:13;96923.66;;;0.90;81.83
70684;BME280;58263;48.146;11.440;2023-02-15T01:55:45;96919.78;;;0.94;81.50
70684;BME280;58263;48.146;11.440;2023-02-15T01:58:13;96919.78;;;0.94;81.58
70684;BME280;58263;48.146;11.440;2023-02-15T02:00:39;96920.03;;;0.91;81.59
70684;BME280;58263;48.146;11.440;2023-02-15T02:03:05;96928.94;;;0.90;81.43
70684;BME280;58263;48.146;11.440;2023-02-15T02:05:30;96922.81;;;0.90;81.42
70684;BME280;58263;48.146;11.440;2023-02-15T02:07:58;96924.78;;;0.88;81.86
70684;BME280;58263;48.146;11.440;2023-02-15T02:10:26;96920.31;;;0.88;81.57
70684;BME280;58263;48.146;11.440;2023-02-15T02:12:54;96917.00;;;0.86;81.85
70684;BME280;58263;48.146;11.440;2023-02-15T02:15:27;96906.44;;;0.86;81.74
70684;BME280;58263;48.146;11.440;2023-02-15T02:18:20;96915.88;;;0.79;81.48
70684;BME280;58263;48.146;11.440;2023-02-15T02:21:07;96910.34;;;0.82;81.33
70684;BME280;58263;48.146;11.440;2023-02-15T02:26:31;96910.31;;;0.72;81.44
70684;BME280;58263;48.146;11.440;2023-02-15T02:29:26;96918.66;;;0.48;82.31
70684;BME280;58263;48.146;11.440;2023-02-15T02:37:36;96912.13;;;0.52;82.12
70684;BME280;58263;48.146;11.440;2023-02-15T02:40:32;96912.69;;;0.46;82.55
70684;BME280;58263;48.146;11.440;2023-02-15T02:43:05;96913.25;;;0.40;82.21
70684;BME280;58263;48.146;11.440;2023-02-15T02:45:37;96898.91;;;0.32;83.37
70684;BME280;58263;48.146;11.440;2023-02-15T02:48:13;96904.19;;;0.42;82.72
70684;BME280;58263;48.146;11.440;2023-02-15T02:50:40;96906.44;;;0.37;82.78
70684;BME280;58263;48.146;11.440;2023-02-15T02:53:06;96912.25;;;0.41;82.43
70684;BME280;58263;48.146;11.440;2023-02-15T02:55:45;96912.00;;;0.44;82.54
70684;BME280;58263;48.146;11.440;2023-02-15T02:58:17;96907.53;;;0.35;82.96
70684;BME280;58263;48.146;11.440;2023-02-15T03:00:53;96906.81;;;0.42;82.95
70684;BME280;58263;48.146;11.440;2023-02-15T03:06:07;96909.22;;;0.36;82.93
70684;BME280;58263;48.146;11.440;2023-02-15T03:08:42;96912.00;;;0.44;82.64
70684;BME280;58263;48.146;11.440;2023-02-15T03:11:09;96907.97;;;0.49;82.20
70684;BME280;58263;48.146;11.440;2023-02-15T03:13:36;96903.94;;;0.55;81.78
70684;BME280;58263;48.146;11.440;2023-02-15T03:16:02;96906.44;;;0.57;81.77
70684;BME280;58263;48.146;11.440;2023-02-15T03:18:54;96903.38;;;0.42;82.42
70684;BME280;58263;48.146;11.440;2023-02-15T03:21:33;96904.75;;;0.46;81.98
70684;BME280;58263;48.146;11.440;2023-02-15T03:24:05;96904.91;;;0.44;81.75
70684;BME280;58263;48.146;11.440;2023-02-15T03:26:34;96899.47;;;0.26;82.10
70684;BME280;58263;48.146;11.440;2023-02-15T03:29:00;96901.84;;;0.29;82.21
70684;BME280;58263;48.146;11.440;2023-02-15T03:31:31;96903.06;;;0.25;82.26
70684;BME280;58263;48.146;11.440;2023-02-15T03:34:02;96899.31;;;0.08;82.52
70684;BME280;58263;48.146;11.440;2023-02-15T03:36:29;96900.59;;;0.24;82.04
70684;BME280;58263;48.146;11.440;2023-02-15T03:39:23;96895.31;;;0.33;82.09
70684;BME280;58263;48.146;11.440;2023-02-15T03:42:07;96901.56;;;0.32;82.28
70684;BME280;58263;48.146;11.440;2023-02-15T03:45:05;96903.66;;;0.39;81.93
70684;BME280;58263;48.146;11.440;2023-02-15T03:47:45;96906.44;;;0.37;81.84
70684;BME280;58263;48.146;11.440;2023-02-15T03:50:28;96910.91;;;0.46;81.43
70684;BME280;58263;48.146;11.440;2023-02-15T03:53:15;96899.75;;;0.43;81.45
70684;BME280;58263;48.146;11.440;2023-02-15T03:55:46;96902.50;;;0.22;82.32
70684;BME280;58263;48.146;11.440;2023-02-15T03:58:12;96897.94;;;0.33;82.04
70684;BME280;58263;48.146;11.440;2023-02-15T04:01:03;96908.94;;;0.39;81.28
70684;BME280;58263;48.146;11.440;2023-02-15T04:03:57;96906.97;;;0.41;81.25
70684;BME280;58263;48.146;11.440;2023-02-15T04:06:24;96908.06;;;0.28;81.43
70684;BME280;58263;48.146;11.440;2023-02-15T04:08:49;96902.13;;;0.36;81.36
70684;BME280;58263;48.146;11.440;2023-02-15T04:11:33;96901.16;;;0.37;81.65
70684;BME280;58263;48.146;11.440;2023-02-15T04:13:58;96906.69;;;0.34;81.85
70684;BME280;58263;48.146;11.440;2023-02-15T04:16:44;96913.50;;;0.37;81.65
70684;BME280;58263;48.146;11.440;2023-02-15T04:19:09;96915.75;;;0.31;81.97
70684;BME280;58263;48.146;11.440;2023-02-15T04:21:53;96913.09;;;0.31;81.96
70684;BME280;58263;48.146;11.440;2023-02-15T04:24:36;96915.84;;;0.30;81.70
70684;BME280;58263;48.146;11.440;2023-02-15T04:27:20;96917.78;;;0.18;82.56
70684;BME280;58263;48.146;11.440;2023-02-15T04:29:46;96915.31;;;0.26;82.17
70684;BME280;58263;48.146;11.440;2023-02-15T04:32:11;96914.44;;;0.26;81.76
70684;BME280;58263;48.146;11.440;2023-02-15T04:34:36;96910.56;;;0.20;81.90
70684;BME280;58263;48.146;11.440;2023-02-15T04:37:02;96906.81;;;0.23;82.35
70684;BME280;58263;48.146;11.440;2023-02-15T04:39:27;96916.69;;;0.21;82.28
70684;BME280;58263;48.146;11.440;2023-02-15T04:41:52;96912.91;;;0.13;82.13
70684;BME280;58263;48.146;11.440;2023-02-15T04:44:17;96906.66;;;0.05;82.97
70684;BME280;58263;48.146;11.440;2023-02-15T04:46:43;96908.19;;;-0.03;82.75
70684;BME280;58263;48.146;11.440;2023-02-15T04:49:08;96904.69;;;0.07;82.35
70684;BME280;58263;48.146;11.440;2023-02-15T04:51:34;96902.78;;;0.09;82.42
70684;BME280;58263;48.146;11.440;2023-02-15T04:53:59;96905.13;;;0.12;82.79
70684;BME280;58263;48.146;11.440;2023-02-15T04:56:25;96910.56;;;0.10;82.94
70684;BME280;58263;48.146;11.440;2023-02-15T04:58:50;96912.09;;;0.13;82.72
70684;BME280;58263;48.146;11.440;2023-02-15T05:01:15;96912.50;;;0.08;82.38
70684;BME280;58263;48.146;11.440;2023-02-15T05:03:41;96914.44;;;0.16;82.82
70684;BME280;58263;48.146;11.440;2023-02-15T05:06:06;96907.47;;;0.05;83.17
70684;BME280;58263;48.146;11.440;2023-02-15T05:08:31;96911.50;;;-0.01;82.96
70684;BME280;58263;48.146;11.440;2023-02-15T05:10:57;96916.09;;;-0.03;82.76
70684;BME280;58263;48.146;11.440;2023-02-15T05:13:23;96915.25;;;0.07;82.99
70684;BME280;58263;48.146;11.440;2023-02-15T05:15:49;96908.06;;;0.09;82.87
70684;BME280;58263;48.146;11.440;2023-02-15T05:18:15;96911.50;;;-0.01;82.62
70684;BME280;58263;48.146;11.440;2023-02-15T05:20:41;96913.69;;;-0.06;82.99
70684;BME280;58263;48.146;11.440;2023-02-15T05:23:06;96909.94;;;-0.13;83.18
70684;BME280;58263;48.146;11.440;2023-02-15T05:25:31;96909.34;;;-0.26;83.39
70684;BME280;58263;48.146;11.440;2023-02-15T05:28:27;96908.69;;;-0.19;83.01
70684;BME280;58263;48.146;11.440;2023-02-15T05:33:29;96912.72;;;-0.14;82.37
70684;BME280;58263;48.146;11.440;2023-02-15T05:35:54;96912.72;;;-0.05;82.21
70684;BME280;58263;48.146;11.440;2023-02-15T05:38:20;96911.91;;;-0.15;82.38
70684;BME280;58263;48.146;11.440;2023-02-15T05:40:45;96914.22;;;-0.22;82.22
70684;BME280;58263;48.146;11.440;2023-02-15T05:43:10;96910.75;;;-0.22;82.45
70684;BME280;58263;48.146;11.440;2023-02-15T05:45:36;96913.69;;;-0.15;82.17
70684;BME280;58263;48.146;11.440;2023-02-15T05:48:01;96912.13;;;-0.18;82.76
70684;BME280;58263;48.146;11.440;2023-02-15T05:50:26;96912.44;;;-0.11;82.60
70684;BME280;58263;48.146;11.440;2023-02-15T05:52:52;96913.00;;;-0.18;82.84
70684;BME280;58263;48.146;11.440;2023-02-15T05:55:17;96920.06;;;-0.18;82.87
70684;BME280;58263;48.146;11.440;2023-02-15T05:57:43;96926.31;;;-0.19;83.09
70684;BME280;58263;48.146;11.440;2023-02-15T06:00:12;96917.16;;;-0.15;82.55
70684;BME280;58263;48.146;11.440;2023-02-15T06:02:38;96924.88;;;-0.23;82.78
70684;BME280;58263;48.146;11.440;2023-02-15T06:05:04;96924.34;;;-0.27;82.91
70684;BME280;58263;48.146;11.440;2023-02-15T06:07:30;96930.44;;;-0.26;82.98
70684;BME280;58263;48.146;11.440;2023-02-15T06:09:55;96930.53;;;-0.38;83.12
70684;BME280;58263;48.146;11.440;2023-02-15T06:12:20;96923.78;;;-0.21;82.47
70684;BME280;58263;48.146;11.440;2023-02-15T06:14:46;96924.47;;;-0.28;81.81
70684;BME280;58263;48.146;11.440;2023-02-15T06:17:11;96922.91;;;-0.41;82.51
70684;BME280;58263;48.146;11.440;2023-02-15T06:19:36;96927.31;;;-0.41;82.13
70684;BME280;58263;48.146;11.440;2023-02-15T06:22:02;96933.19;;;-0.28;81.94
70684;BME280;58263;48.146;11.440;2023-02-15T06:24:27;96929.59;;;-0.27;80.98
70684;BME280;58263;48.146;11.440;2023-02-15T06:26:52;96930.66;;;-0.39;81.79
70684;BME280;58263;48.146;11.440;2023-02-15T06:29:17;96929.16;;;-0.32;81.37
70684;BME280;58263;48.146;11.440;2023-02-15T06:31:43;96935.97;;;-0.29;81.14
70684;BME280;58263;48.146;11.440;2023-02-15T06:34:08;96943.97;;;-0.41;81.09
70684;BME280;58263;48.146;11.440;2023-02-15T06:36:33;96936.06;;;-0.41;81.00
70684;BME280;58263;48.146;11.440;2023-02-15T06:38:59;96935.94;;;-0.39;81.33
70684;BME280;58263;48.146;11.440;2023-02-15T06:41:24;96940.13;;;-0.37;81.27
70684;BME280;58263;48.146;11.440;2023-02-15T06:43:50;96941.72;;;-0.45;82.00
70684;BME280;58263;48.146;11.440;2023-02-15T06:46:16;96949.50;;;-0.44;81.70
70684;BME280;58263;48.146;11.440;2023-02-15T06:48:41;96951.22;;;-0.33;81.14
70684;BME280;58263;48.146;11.440;2023-02-15T06:51:06;96953.16;;;-0.35;81.39
70684;BME280;58263;48.146;11.440;2023-02-15T06:53:32;96948.06;;;-0.27;80.93
70684;BME280;58263;48.146;11.440;2023-02-15T06:56:05;96945.69;;;-0.30;81.15
70684;BME280;58263;48.146;11.440;2023-02-15T06:58:35;96943.34;;;-0.23;80.96
70684;BME280;58263;48.146;11.440;2023-02-15T07:01:00;96949.03;;;-0.28;81.11
70684;BME280;58263;48.146;11.440;2023-02-15T07:03:26;96935.44;;;-0.23;80.82
70684;BME280;58263;48.146;11.440;2023-02-15T07:05:55;96940.47;;;-0.20;81.10
70684;BME280;58263;48.146;11.440;2023-02-15T07:08:21;96961.72;;;-0.43;81.63
70684;BME280;58263;48.146;11.440;2023-02-15T07:10:48;96949.84;;;-0.27;81.00
70684;BME280;58263;48.146;11.440;2023-02-15T07:13:13;96952.47;;;-0.27;81.25
70684;BME280;58263;48.146;11.440;2023-02-15T07:15:39;96940.59;;;-0.22;80.97
70684;BME280;58263;48.146;11.440;2023-02-15T07:18:04;96941.81;;;-0.26;81.26
70684;BME280;58263;48.146;11.440;2023-02-15T07:20:30;96953.03;;;-0.33;81.29
70684;BME280;58263;48.146;11.440;2023-02-15T07:22:55;96946.25;;;-0.26;80.92
70684;BME280;58263;48.146;11.440;2023-02-15T07:25:20;96945.59;;;-0.19;81.15
70684;BME280;58263;48.146;11.440;2023-02-15T07:27:46;96950.97;;;-0.30;81.92
70684;BME280;58263;48.146;11.440;2023-02-15T07:30:14;96953.81;;;-0.43;81.66
70684;BME280;58263;48.146;11.440;2023-02-15T07:32:39;96949.66;;;-0.36;81.66
70684;BME280;58263;48.146;11.440;2023-02-15T07:35:25;96950.53;;;-0.35;81.66
70684;BME280;58263;48.146;11.440;2023-02-15T07:37:50;96948.41;;;-0.41;81.83
70684;BME280;58263;48.146;11.440;2023-02-15T07:40:15;96947.47;;;-0.30;81.29
70684;BME280;58263;48.146;11.440;2023-02-15T07:42:41;96944.03;;;-0.31;81.20
70684;BME280;58263;48.146;11.440;2023-02-15T07:45:06;96937.69;;;-0.19;80.82
70684;BME280;58263;48.146;11.440;2023-02-15T07:47:32;96933.94;;;-0.16;81.46
70684;BME280;58263;48.146;11.440;2023-02-15T07:49:57;96933.22;;;-0.18;80.27
70684;BME280;58263;48.146;11.440;2023-02-15T07:52:22;96931.28;;;-0.26;80.96
70684;BME280;58263;48.146;11.440;2023-02-15T07:54:47;96935.19;;;-0.20;80.62
70684;BME280;58263;48.146;11.440;2023-02-15T07:57:13;96928.50;;;-0.24;81.25
70684;BME280;58263;48.146;11.440;2023-02-15T07:59:38;96924.03;;;-0.33;81.12
70684;BME280;58263;48.146;11.440;2023-02-15T08:02:08;96922.34;;;-0.35;81.32
70684;BME280;58263;48.146;11.440;2023-02-15T08:04:34;96922.69;;;-0.18;80.97
70684;BME280;58263;48.146;11.440;2023-02-15T08:06:59;96925.06;;;-0.15;80.58
70684;BME280;58263;48.146;11.440;2023-02-15T08:09:25;96930.75;;;-0.10;80.78
70684;BME280;58263;48.146;11.440;2023-02-15T08:11:50;96932.06;;;0.06;80.25
70684;BME280;58263;48.146;11.440;2023-02-15T08:14:18;96927.19;;;0.01;79.21
70684;BME280;58263;48.146;11.440;2023-02-15T08:17:01;96926.38;;;0.10;79.32
70684;BME280;58263;48.146;11.440;2023-02-15T08:19:31;96925.66;;;-0.02;80.57
70684;BME280;58263;48.146;11.440;2023-02-15T08:24:26;96921.84;;;0.22;78.90
70684;BME280;58263;48.146;11.440;2023-02-15T08:26:52;96913.09;;;0.31;78.69
70684;BME280;58263;48.146;11.440;2023-02-15T08:29:20;96928.09;;;0.41;78.68
70684;BME280;58263;48.146;11.440;2023-02-15T08:31:47;96925.88;;;0.46;77.92
70684;BME280;58263;48.146;11.440;2023-02-15T08:34:15;96920.88;;;0.53;77.97
70684;BME280;58263;48.146;11.440;2023-02-15T08:36:41;96920.19;;;0.60;78.23
70684;BME280;58263;48.146;11.440;2023-02-15T08:39:07;96917.81;;;0.57;77.61
70684;BME280;58263;48.146;11.440;2023-02-15T08:41:34;96919.75;;;0.75;77.38
70684;BME280;58263;48.146;11.440;2023-02-15T08:44:03;96922.25;;;0.76;77.19
70684;BME280;58263;48.146;11.440;2023-02-15T08:46:31;96924.50;;;0.81;77.17
70684;BME280;58263;48.146;11.440;2023-02-15T08:48:57;96921.16;;;0.89;76.67
70684;BME280;58263;48.146;11.440;2023-02-15T08:51:25;96921.56;;;0.84;76.71
70684;BME280;58263;48.146;11.440;2023-02-15T08:53:53;96933.09;;;0.83;76.46
70684;BME280;58263;48.146;11.440;2023-02-15T08:56:21;96926.47;;;0.89;77.05
70684;BME280;58263;48.146;11.440;2023-02-15T08:58:47;96925.88;;;0.95;77.12
70684;BME280;58263;48.146;11.440;2023-02-15T09:01:15;96925.84;;;1.05;77.56
70684;BME280;58263;48.146;11.440;2023-02-15T09:03:45;96917.78;;;1.06;77.74
70684;BME280;58263;48.146;11.440;2023-02-15T09:06:11;96923.34;;;1.13;76.77
70684;BME280;58263;48.146;11.440;2023-02-15T09:08:36;96923.09;;;1.16;75.98
70684;BME280;58263;48.146;11.440;2023-02-15T09:11:07;96936.00;;;1.19;77.06
70684;BME280;58263;48.146;11.440;2023-02-15T09:13:33;96931.13;;;1.24;76.52
70684;BME280;58263;48.146;11.440;2023-02-15T09:16:04;96925.56;;;1.27;76.66
70684;BME280;58263;48.146;11.440;2023-02-15T09:18:31;96915.63;;;1.49;76.20
70684;BME280;58263;48.146;11.440;2023-02-15T09:21:11;96914.13;;;1.74;75.02
70684;BME280;58263;48.146;11.440;2023-02-15T09:23:38;96921.44;;;1.90;74.28
70684;BME280;58263;48.146;11.440;2023-02-15T09:26:08;96908.09;;;2.10;73.41
70684;BME280;58263;48.146;11.440;2023-02-15T09:28:34;96902.22;;;2.34;72.98
70684;BME280;58263;48.146;11.440;2023-02-15T09:31:12;96905.72;;;2.52;72.84
70684;BME280;58263;48.146;11.440;2023-02-15T09:33:39;96900.66;;;2.59;71.33
70684;BME280;58263;48.146;11.440;2023-02-15T09:36:14;96909.81;;;2.47;71.72
70684;BME280;58263;48.146;11.440;2023-02-15T09:38:39;96901.25;;;2.53;72.01
70684;BME280;58263;48.146;11.440;2023-02-15T09:49:30;96910.75;;;3.18;70.72
70684;BME280;58263;48.146;11.440;2023-02-15T09:52:25;96907.50;;;3.32;69.29
70684;BME280;58263;48.146;11.440;2023-02-15T09:55:04;96912.00;;;3.32;69.28
70684;BME280;58263;48.146;11.440;2023-02-15T10:03:31;96913.00;;;3.65;69.56
70684;BME280;58263;48.146;11.440;2023-02-15T10:14:57;96910.34;;;4.59;67.01
70684;BME280;58263;48.146;11.440;2023-02-15T10:18:06;96906.91;;;4.91;66.21
70684;BME280;58263;48.146;11.440;2023-02-15T10:20:55;96893.25;;;4.95;65.50
70684;BME280;58263;48.146;11.440;2023-02-15T10:28:48;96895.06;;;6.39;63.21
70684;BME280;58263;48.146;11.440;2023-02-15T10:31:28;96889.09;;;6.84;61.33
70684;BME280;58263;48.146;11.440;2023-02-15T10:39:38;96875.59;;;8.28;57.63
70684;BME280;58263;48.146;11.440;2023-02-15T10:42:20;96871.28;;;9.35;54.88
70684;BME280;58263;48.146;11.440;2023-02-15T10:45:07;96874.81;;;10.06;51.92
70684;BME280;58263;48.146;11.440;2023-02-15T10:47:55;96855.47;;;10.79;49.20
70684;BME280;58263;48.146;11.440;2023-02-15T10:50:48;96857.16;;;11.54;48.94
70684;BME280;58263;48.146;11.440;2023-02-15T11:01:49;96840.41;;;13.51;42.81
70684;BME280;58263;48.146;11.440;2023-02-15T11:07:25;96837.06;;;14.30;42.43
70684;BME280;58263;48.146;11.440;2023-02-15T11:12:40;96816.41;;;16.27;37.96
70684;BME280;58263;48.146;11.440;2023-02-15T11:15:30;96822.44;;;17.38;35.48
70684;BME280;58263;48.146;11.440;2023-02-15T11:18:05;96818.59;;;17.90;34.57
70684;BME280;58263;48.146;11.440;2023-02-15T11:20:44;96810.53;;;18.17;33.45
70684;BME280;58263;48.146;11.440;2023-02-15T11:23:15;96816.56;;;17.80;33.70
70684;BME280;58263;48.146;11.440;2023-02-15T11:25:45;96806.69;;;18.13;33.63
70684;BME280;58263;48.146;11.440;2023-02-15T11:28:29;96802.69;;;18.43;32.95
70684;BME280;58263;48.146;11.440;2023-02-15T11:30:56;96791.25;;;18.90;32.22
70684;BME280;58263;48.146;11.440;2023-02-15T11:33:27;96791.72;;;19.47;31.28
70684;BME280;58263;48.146;11.440;2023-02-15T11:36:00;96782.63;;;19.31;30.86
70684;BME280;58263;48.146;11.440;2023-02-15T11:38:32;96776.25;;;19.53;31.34
70684;BME280;58263;48.146;11.440;2023-02-15T11:43:53;96776.91;;;19.70;30.61
70684;BME280;58263;48.146;11.440;2023-02-15T11:46:19;96764.72;;;19.83;30.61
70684;BME280;58263;48.146;11.440;2023-02-15T11:48:46;96766.38;;;19.84;30.31
70684;BME280;58263;48.146;11.440;2023-02-15T11:51:14;96761.50;;;19.91;29.97
70684;BME280;58263;48.146;11.440;2023-02-15T11:53:41;96756.72;;;20.14;29.77
70684;BME280;58263;48.146;11.440;2023-02-15T11:56:15;96753.78;;;20.41;30.17
70684;BME280;58263;48.146;11.440;2023-02-15T11:58:53;96750.75;;;20.33;29.93
70684;BME280;58263;48.146;11.440;2023-02-15T12:01:29;96739.56;;;20.24;30.08
70684;BME280;58263;48.146;11.440;2023-02-15T12:04:16;96736.28;;;20.22;30.27
70684;BME280;58263;48.146;11.440;2023-02-15T12:06:49;96726.41;;;19.95;30.06
70684;BME280;58263;48.146;11.440;2023-02-15T12:09:33;96728.59;;;19.50;31.45
70684;BME280;58263;48.146;11.440;2023-02-15T12:14:52;96727.78;;;19.50;30.66
70684;BME280;58263;48.146;11.440;2023-02-15T12:17:20;96716.75;;;19.72;30.60
70684;BME280;58263;48.146;11.440;2023-02-15T12:19:47;96716.34;;;20.01;30.18
70684;BME280;58263;48.146;11.440;2023-02-15T12:22:36;96713.44;;;20.33;30.09
70684;BME280;58263;48.146;11.440;2023-02-15T12:25:17;96707.19;;;20.43;29.92
70684;BME280;58263;48.146;11.440;2023-02-15T12:27:45;96702.81;;;20.37;29.83
70684;BME280;58263;48.146;11.440;2023-02-15T12:30:21;96700.94;;;20.53;29.32
70684;BME280;58263;48.146;11.440;2023-02-15T12:32:54;96693.88;;;20.67;29.34
70684;BME280;58263;48.146;11.440;2023-02-15T12:35:30;96687.56;;;20.67;29.25
70684;BME280;58263;48.146;11.440;2023-02-15T12:40:35;96689.47;;;20.46;29.88
70684;BME280;58263;48.146;11.440;2023-02-15T12:43:01;96686.44;;;20.21;29.85
70684;BME280;58263;48.146;11.440;2023-02-15T12:45:35;96684.59;;;19.74;30.52
70684;BME280;58263;48.146;11.440;2023-02-15T12:48:14;96691.59;;;19.54;30.90
70684;BME280;58263;48.146;11.440;2023-02-15T12:50:47;96687.56;;;19.62;30.77
70684;BME280;58263;48.146;11.440;2023-02-15T12:53:30;96685.72;;;19.78;30.47
70684;BME280;58263;48.146;11.440;2023-02-15T12:56:02;96676.56;;;19.89;30.47
70684;BME280;58263;48.146;11.440;2023-02-15T12:58:41;96674.41;;;20.02;30.36
70684;BME280;58263;48.146;11.440;2023-02-15T13:01:11;96675.00;;;20.19;30.17
70684;BME280;58263;48.146;11.440;2023-02-15T13:03:39;96675.19;;;19.87;30.72
70684;BME280;58263;48.146;11.440;2023-02-15T13:06:17;96660.47;;;19.93;29.71
70684;BME280;58263;48.146;11.440;2023-02-15T13:08:48;96662.69;;;19.96;30.74
70684;BME280;58263;48.146;11.440;2023-02-15T13:11:24;96667.31;;;20.01;30.23
70684;BME280;58263;48.146;11.440;2023-02-15T13:13:55;96663.44;;;19.86;30.59
70684;BME280;58263;48.146;11.440;2023-02-15T13:16:33;96659.41;;;19.99;30.48
70684;BME280;58263;48.146;11.440;2023-02-15T13:19:04;96653.69;;;19.96;30.09
70684;BME280;58263;48.146;11.440;2023-02-15T13:21:35;96660.97;;;19.80;30.42
70684;BME280;58263;48.146;11.440;2023-02-15T13:24:06;96644.84;;;19.68;30.58
70684;BME280;58263;48.146;11.440;2023-02-15T13:26:34;96648.50;;;19.31;30.89
70684;BME280;58263;48.146;11.440;2023-02-15T13:29:17;96648.41;;;18.78;32.26
70684;BME280;58263;48.146;11.440;2023-02-15T13:31:45;96642.03;;;18.29;32.58
70684;BME280;58263;48.146;11.440;2023-02-15T13:36:52;96649.56;;;17.72;34.05
70684;BME280;58263;48.146;11.440;2023-02-15T13:39:45;96644.50;;;17.81;34.30
70684;BME280;58263;48.146;11.440;2023-02-15T13:42:32;96641.75;;;17.54;34.59
70684;BME280;58263;48.146;11.440;2023-02-15T13:48:15;96650.66;;;17.49;34.79
70684;BME280;58263;48.146;11.440;2023-02-15T13:51:10;96648.09;;;17.20;35.24
70684;BME280;58263;48.146;11.440;2023-02-15T13:56:45;96650.81;;;17.20;35.32
70684;BME280;58263;48.146;11.440;2023-02-15T13:59:20;96654.03;;;17.17;36.03
70684;BME280;58263;48.146;11.440;2023-02-15T14:02:03;96647.97;;;17.10;35.83
70684;BME280;58263;48.146;11.440;2023-02-15T14:05:09;96648.91;;;16.65;36.47
70684;BME280;58263;48.146;11.440;2023-02-15T14:07:54;96651.31;;;16.15;38.17
70684;BME280;58263;48.146;11.440;2023-02-15T14:13:35;96649.44;;;15.46;39.38
70684;BME280;58263;48.146;11.440;2023-02-15T14:21:48;96639.59;;;15.28;39.63
70684;BME280;58263;48.146;11.440;2023-02-15T14:29:59;96636.66;;;14.47;40.77
70684;BME280;58263;48.146;11.440;2023-02-15T14:32:36;96630.59;;;14.09;42.01
70684;BME280;58263;48.146;11.440;2023-02-15T14:35:15;96629.19;;;13.95;42.35
70684;BME280;58263;48.146;11.440;2023-02-15T14:37:52;96634.47;;;13.71;43.11
70684;BME280;58263;48.146;11.440;2023-02-15T14:43:21;96634.13;;;13.49;43.16
70684;BME280;58263;48.146;11.440;2023-02-15T14:45:58;96650.16;;;13.44;43.33
70684;BME280;58263;48.146;11.440;2023-02-15T14:51:08;96634.63;;;12.83;45.04
70684;BME280;58263;48.146;11.440;2023-02-15T14:53:36;96644.94;;;12.68;44.92
70684;BME280;58263;48.146;11.440;2023-02-15T14:56:17;96645.06;;;12.55;45.49
70684;BME280;58263;48.146;11.440;2023-02-15T15:01:25;96645.00;;;12.36;46.32